This is the latest recevied weather packets stored in our database for station/object SPDRWX. If no packets are shown the sender has not sent any weather packets the latest 1 day(s).
| Time | Temp. | Humidity | Pressure | Rain* | Wind** | Luminosity | Snow |
|---|---|---|---|---|---|---|---|
| 1778086887 | 13.33° C | 44% | 1016.8 hPa | 0.51 mm | - | - | - |
| 1778084777 | 12.22° C | 50% | 1016.8 hPa | 0.51 mm | - | - | - |
| 1778083274 | 11.67° C | 53% | 1016.6 hPa | 0.51 mm | - | - | - |
| 1778082669 | 11.11° C | 55% | 1016.6 hPa | 0.51 mm | - | - | - |
| 1778082068 | 10.56° C | 56% | 1016.5 hPa | 0.51 mm | - | - | - |
| 1778081162 | 10.56° C | 56% | 1016.4 hPa | 0.51 mm | - | - | - |
| 1778080560 | 10° C | 57% | 1016.5 hPa | 0.51 mm | - | - | - |
| 1778080260 | 10° C | 57% | 1016.5 hPa | 0.51 mm | - | - | - |
| 1778079656 | 9.44° C | 59% | 1016.3 hPa | 0.51 mm | - | - | - |
| 1778077245 | 8.33° C | 63% | 1016 hPa | 0.51 mm | - | - | - |
| 1778076045 | 7.78° C | 64% | 1015.8 hPa | 0.51 mm | - | - | - |
| 1778075438 | 7.78° C | 64% | 1015.7 hPa | 0.51 mm | - | - | - |
| 1778071521 | 7.22° C | 66% | 1015 hPa | 0.51 mm | - | - | - |
| 1778071219 | 7.22° C | 67% | 1015 hPa | 0.51 mm | - | - | - |
| 1778070316 | 7.22° C | 67% | 1014.8 hPa | 0.51 mm | - | - | - |
| 1778069415 | 7.78° C | 66% | 1014.8 hPa | 0.51 mm | - | - | - |
| 1778068210 | 7.78° C | 66% | 1014.6 hPa | 0.51 mm | - | - | - |
| 1778067911 | 7.78° C | 66% | 1014.6 hPa | 0.51 mm | - | - | - |
| 1778066702 | 7.22° C | 67% | 1014.5 hPa | 0.51 mm | - | - | - |
| 1778065797 | 7.22° C | 69% | 1014.4 hPa | 0.51 mm | - | - | - |
| 1778064895 | 7.22° C | 69% | 1014.3 hPa | 0.51 mm | - | - | - |
| 1778063388 | 6.67° C | 70% | 1014 hPa | 0.51 mm | - | - | - |
| 1778062184 | 6.67° C | 72% | 1013.9 hPa | 0.51 mm | - | - | - |
| 1778061580 | 6.11° C | 72% | 1013.8 hPa | 0.51 mm | - | - | - |
| 1778061277 | 6.11° C | 73% | 1013.8 hPa | 0.51 mm | - | - | - |
* Rain since midnight (hover to see other rain measurements)
** Current wind speed in m/s (hover to see current wind gust speed)